createdAt,value
2023-03-15T00:00:21.325Z,52.8
2023-03-15T00:06:14.990Z,52.8
2023-03-15T00:11:51.780Z,52.7
2023-03-15T00:17:14.097Z,52.6
2023-03-15T00:22:51.868Z,52.6
2023-03-15T00:28:44.851Z,52.6
2023-03-15T00:34:37.933Z,52.6
2023-03-15T00:40:31.238Z,52.4
2023-03-15T00:46:08.447Z,52.5
2023-03-15T01:02:14.373Z,52.3
2023-03-15T01:07:37.093Z,52.3
2023-03-15T01:13:30.444Z,52.3
2023-03-15T01:19:22.774Z,52.2
2023-03-15T01:25:15.912Z,52.2
2023-03-15T01:31:08.638Z,52.1
2023-03-15T01:36:45.519Z,52.1
2023-03-15T01:42:37.524Z,52.1
2023-03-15T01:48:15.203Z,52
2023-03-15T01:54:07.495Z,52
2023-03-15T02:05:23.054Z,51.9
2023-03-15T02:10:44.640Z,51.8
2023-03-15T02:16:21.367Z,51.8
2023-03-15T02:21:59.955Z,51.8
2023-03-15T02:27:53.201Z,51.8
2023-03-15T02:33:30.607Z,51.7
2023-03-15T02:38:53.401Z,51.6
2023-03-15T02:44:46.235Z,51.6
2023-03-15T02:50:38.920Z,51.6
2023-03-15T02:56:16.349Z,51.5
2023-03-15T03:01:53.283Z,51.5
2023-03-15T03:07:45.731Z,51.4
2023-03-15T03:13:39.008Z,51.4
2023-03-15T03:19:00.198Z,51.4
2023-03-15T03:24:37.252Z,51.3
2023-03-15T03:30:15.931Z,51.3
2023-03-15T03:36:08.808Z,51.3
2023-03-15T03:42:01.747Z,51.2
2023-03-15T03:47:39.866Z,51.2
2023-03-15T03:53:32.858Z,51.1
2023-03-15T03:59:10.272Z,51.1
2023-03-15T04:04:47.720Z,51.1
2023-03-15T04:10:23.830Z,51
2023-03-15T04:16:17.302Z,51
2023-03-15T04:21:54.816Z,50.9
2023-03-15T04:27:32.146Z,50.9
2023-03-15T04:33:24.510Z,50.9
2023-03-15T04:39:17.925Z,50.8
2023-03-15T04:45:09.526Z,50.8
2023-03-15T04:50:30.815Z,50.8
2023-03-15T04:56:24.248Z,50.7
2023-03-15T05:01:46.210Z,50.6
2023-03-15T05:07:41.418Z,50.6
2023-03-15T05:13:38.518Z,50.6
2023-03-15T05:19:14.390Z,50.5
2023-03-15T05:24:51.528Z,50.5
2023-03-15T05:30:45.099Z,50.4
2023-03-15T05:36:22.107Z,50.4
2023-03-15T05:42:14.238Z,50.3
2023-03-15T05:48:07.238Z,50.3
2023-03-15T05:54:02.514Z,50.3
2023-03-15T05:59:55.146Z,50.2
2023-03-15T06:05:33.499Z,50.2
2023-03-15T06:11:10.669Z,50.1
2023-03-15T06:16:48.759Z,50.1
2023-03-15T06:22:43.910Z,50.1
2023-03-15T06:28:35.693Z,50
2023-03-15T06:34:31.097Z,49.9
2023-03-15T06:40:23.991Z,49.9
2023-03-15T06:46:17.150Z,49.9
2023-03-15T06:52:25.963Z,49.8
2023-03-15T06:58:19.600Z,49.8
2023-03-15T07:04:13.550Z,49.8
2023-03-15T07:09:50.350Z,49.7
2023-03-15T07:15:44.314Z,49.7
2023-03-15T07:21:45.249Z,49.6
2023-03-15T07:27:53.597Z,49.6
2023-03-15T07:33:32.435Z,49.6
2023-03-15T07:39:27.439Z,49.6
2023-03-15T07:45:21.610Z,49.5
2023-03-15T07:51:16.122Z,49.4
2023-03-15T07:57:09.456Z,49.4
2023-03-15T08:02:53.089Z,49.4
2023-03-15T08:08:36.314Z,49.3
2023-03-15T08:13:58.115Z,49.3
2023-03-15T08:19:36.550Z,49.3
2023-03-15T08:25:31.151Z,49.2
2023-03-15T08:31:24.059Z,49.1
2023-03-15T08:37:18.197Z,49.1
2023-03-15T08:43:14.041Z,49.1
2023-03-15T08:49:25.173Z,49.1
2023-03-15T08:55:17.560Z,49
2023-03-15T09:01:14.785Z,49
2023-03-15T09:06:54.892Z,49
2023-03-15T09:12:48.128Z,48.9
2023-03-15T09:18:41.308Z,48.9
2023-03-15T09:24:56.986Z,48.8
2023-03-15T09:30:33.666Z,48.9
2023-03-15T09:36:31.858Z,48.8
2023-03-15T09:42:23.554Z,48.8
2023-03-15T09:48:16.278Z,48.8
2023-03-15T09:53:53.798Z,48.7
2023-03-15T09:59:31.965Z,48.7
2023-03-15T10:05:25.789Z,48.6
2023-03-15T10:11:19.563Z,48.6
2023-03-15T10:17:12.190Z,48.4
2023-03-15T10:23:05.440Z,48.4
2023-03-15T10:28:59.185Z,48.4
2023-03-15T10:35:05.966Z,48.4
2023-03-15T10:41:13.324Z,48.4
2023-03-15T10:47:22.419Z,48.3
2023-03-15T10:53:22.622Z,48.2
2023-03-15T10:59:28.646Z,48.3
2023-03-15T11:05:23.771Z,48.3
2023-03-15T11:11:16.542Z,48.1
2023-03-15T11:17:09.783Z,48.2
2023-03-15T11:23:02.638Z,48.1
2023-03-15T11:29:05.935Z,48
2023-03-15T11:34:44.034Z,48
2023-03-15T11:41:01.639Z,47.9
2023-03-15T11:46:53.866Z,47.9
2023-03-15T11:52:14.950Z,47.9
2023-03-15T11:58:08.462Z,47.9
2023-03-15T12:03:49.032Z,47.9
2023-03-15T12:09:48.751Z,47.8
2023-03-15T12:15:27.191Z,47.7
2023-03-15T12:21:20.531Z,47.7
2023-03-15T12:26:54.673Z,47.6
2023-03-15T12:32:33.998Z,47.6
2023-03-15T12:38:10.841Z,47.6
2023-03-15T12:43:51.297Z,47.6
2023-03-15T12:49:14.203Z,47.6
2023-03-15T12:54:51.349Z,47.4
2023-03-15T13:00:40.266Z,47.4
2023-03-15T13:06:20.133Z,47.4
2023-03-15T13:12:06.008Z,47.4
2023-03-15T13:17:43.014Z,47.4
2023-03-15T13:23:28.789Z,47.3
2023-03-15T13:29:05.075Z,47.4
2023-03-15T13:34:42.523Z,47.3
2023-03-15T13:40:19.755Z,47.3
2023-03-15T13:45:56.674Z,47.3
2023-03-15T13:51:34.968Z,47.1
2023-03-15T13:57:39.006Z,47.1
2023-03-15T14:03:17.501Z,47.1
2023-03-15T14:08:54.892Z,47.1
2023-03-15T14:14:16.613Z,47
2023-03-15T14:20:10.548Z,46.9
2023-03-15T14:25:48.585Z,46.9
2023-03-15T14:31:26.247Z,46.9
2023-03-15T14:37:19.297Z,46.9
2023-03-15T14:43:12.132Z,46.8
2023-03-15T14:49:01.764Z,46.8
2023-03-15T14:54:54.370Z,46.8
2023-03-15T15:00:49.798Z,46.8
2023-03-15T15:06:42.314Z,46.7
2023-03-15T15:12:34.412Z,46.7
2023-03-15T15:19:01.387Z,46.6
2023-03-15T15:25:07.799Z,46.6
2023-03-15T15:30:53.496Z,46.6
2023-03-15T15:36:48.649Z,46.6
2023-03-15T15:42:42.202Z,46.5
2023-03-15T15:48:36.069Z,46.5
2023-03-15T15:54:12.710Z,46.4
2023-03-15T16:00:05.502Z,46.4
2023-03-15T16:06:00.557Z,46.4
2023-03-15T16:11:52.699Z,46.4
2023-03-15T16:17:45.240Z,46.3
2023-03-15T16:23:38.321Z,46.3
2023-03-15T16:29:30.768Z,46.3
2023-03-15T16:35:34.534Z,46.3
2023-03-15T16:40:56.307Z,46.2
2023-03-15T16:46:49.311Z,46.1
2023-03-15T16:52:42.235Z,46.1
2023-03-15T16:58:55.247Z,46.1
2023-03-15T17:04:51.071Z,46.1
2023-03-15T17:10:43.666Z,46
2023-03-15T17:16:36.078Z,46
2023-03-15T17:22:29.233Z,45.9
2023-03-15T17:28:24.637Z,45.9
2023-03-15T17:34:33.251Z,45.9
2023-03-15T17:40:09.909Z,45.8
2023-03-15T17:45:47.775Z,45.8
2023-03-15T17:51:09.344Z,45.8
2023-03-15T17:56:48.990Z,45.8
2023-03-15T18:02:54.861Z,45.7
2023-03-15T18:09:02.105Z,45.7
2023-03-15T18:14:54.507Z,45.7
2023-03-15T18:20:47.759Z,45.6
2023-03-15T18:26:40.182Z,45.6
2023-03-15T18:32:33.521Z,45.6
2023-03-15T18:38:11.231Z,45.6
2023-03-15T18:43:48.533Z,45.5
2023-03-15T18:49:58.169Z,45.4
2023-03-15T18:55:41.275Z,45.4
2023-03-15T19:01:05.517Z,45.4
2023-03-15T19:06:27.890Z,45.4
2023-03-15T19:11:50.722Z,45.3
2023-03-15T19:17:43.446Z,45.3
2023-03-15T19:23:04.373Z,45.3
2023-03-15T19:28:41.602Z,45.3
2023-03-15T19:34:35.398Z,45.2
2023-03-15T19:40:12.256Z,45.2
2023-03-15T19:45:49.839Z,45.1
2023-03-15T19:51:12.192Z,45.1
2023-03-15T19:56:52.123Z,45.1
2023-03-15T20:02:31.879Z,45.1
2023-03-15T20:08:11.082Z,45
2023-03-15T20:14:05.335Z,45
2023-03-15T20:19:43.584Z,44.9
2023-03-15T20:25:05.694Z,44.9
2023-03-15T20:30:44.351Z,44.9
2023-03-15T20:36:38.814Z,44.9
2023-03-15T20:42:01.246Z,44.8
2023-03-15T20:47:38.495Z,44.8
2023-03-15T20:52:46.110Z,45.4
2023-03-15T20:58:09.803Z,46.7
2023-03-15T21:03:16.674Z,48.1
2023-03-15T21:08:53.948Z,49.5
2023-03-15T21:14:49.917Z,49.8
2023-03-15T21:20:29.897Z,49.8
2023-03-15T21:26:01.242Z,49.7
2023-03-15T21:31:42.793Z,49.7
2023-03-15T21:37:35.443Z,49.6
2023-03-15T21:43:27.788Z,49.6
2023-03-15T21:48:34.380Z,49.6
2023-03-15T21:53:56.334Z,49.6
2023-03-15T21:59:18.606Z,49.6
2023-03-15T22:04:58.543Z,49.5
2023-03-15T22:10:20.617Z,49.5
2023-03-15T22:16:23.651Z,49.4
2023-03-15T22:22:01.246Z,49.4
2023-03-15T22:27:23.233Z,49.4
2023-03-15T22:33:00.536Z,49.4
2023-03-15T22:38:22.091Z,49.3
2023-03-15T22:43:59.493Z,49.3
2023-03-15T22:49:36.871Z,49.3
2023-03-15T22:55:13.909Z,49.2
2023-03-15T23:00:35.748Z,49.2
2023-03-15T23:06:29.389Z,49.1
2023-03-15T23:12:06.443Z,49.1
2023-03-15T23:17:09.728Z,49.1
2023-03-15T23:22:32.208Z,49.1
2023-03-15T23:27:22.576Z,49
2023-03-15T23:32:45.203Z,49
2023-03-15T23:38:09.039Z,48.9
2023-03-15T23:43:47.338Z,48.9
2023-03-15T23:49:25.988Z,48.9
2023-03-15T23:55:19.048Z,48.8
